Time;durP1;ratioP1;P1;durP2;ratioP2;P2;SDS_P1;SDS_P2;PMS_P1;PMS_P2;Temp;Humidity;BMP_temperature;BMP_pressure;BME280_temperature;BME280_humidity;BME280_pressure;Samples;Min_cycle;Max_cycle;Signal;HPM_P1;HPM_P2
2022/11/16 00:00:58;;;;;;;21.70;16.00;;;;;;;7.20;76.33;99895.06;104250;1334;22080;-82
2022/11/16 00:03:25;;;;;;;20.00;16.40;;;;;;;7.23;76.37;99897.32;104264;1339;22121;-85
2022/11/16 00:05:59;;;;;;;20.90;14.90;;;;;;;7.22;76.18;99896.98;104182;1339;22818;-83
2022/11/16 00:08:27;;;;;;;21.20;15.20;;;;;;;7.21;76.24;99895.59;103831;1344;22180;-84
2022/11/16 00:10:53;;;;;;;19.80;15.10;;;;;;;7.20;76.14;99892.27;103868;1344;22193;-90
2022/11/16 00:13:19;;;;;;;20.80;15.10;;;;;;;7.18;76.10;99886.48;103766;1350;22240;-94
2022/11/16 00:15:56;;;;;;;19.10;15.40;;;;;;;7.18;76.19;99887.02;103999;1342;22014;-92
2022/11/16 00:18:22;;;;;;;19.10;14.50;;;;;;;7.21;76.44;99886.29;103539;1350;22994;-88
2022/11/16 00:20:49;;;;;;;18.20;15.40;;;;;;;7.27;76.41;99885.23;103689;1350;22333;-86
2022/11/16 00:23:16;;;;;;;18.30;14.50;;;;;;;7.30;76.36;99886.27;103706;1349;22255;-91
2022/11/16 00:28:01;;;;;;;18.60;15.80;;;;;;;7.31;76.08;99885.91;103134;1342;545523;-95
2022/11/16 00:30:28;;;;;;;18.20;15.10;;;;;;;7.27;76.10;99882.42;106299;1320;22775;-95
2022/11/16 00:32:59;;;;;;;18.10;14.60;;;;;;;7.28;76.14;99879.45;106638;1313;22078;-91
2022/11/16 00:35:26;;;;;;;17.00;13.30;;;;;;;7.34;76.07;99883.98;106019;1304;22136;-90
2022/11/16 00:37:53;;;;;;;18.60;13.20;;;;;;;7.31;75.97;99883.47;105858;1319;22146;-83
2022/11/16 00:40:19;;;;;;;18.80;13.60;;;;;;;7.34;76.07;99882.58;105876;1319;22151;-84
2022/11/16 00:42:47;;;;;;;16.90;12.90;;;;;;;7.37;76.00;99881.33;106241;1316;173393;-84
2022/11/16 00:45:14;;;;;;;16.60;13.20;;;;;;;7.34;75.78;99879.60;106049;1319;22181;-83
2022/11/16 00:47:41;;;;;;;16.10;13.10;;;;;;;7.34;75.84;99878.20;106163;1316;22345;-80
2022/11/16 00:50:08;;;;;;;16.00;12.60;;;;;;;7.27;75.59;99876.30;106437;1316;22116;-90
2022/11/16 00:54:04;;;;;;;17.30;13.50;;;;;;;7.25;75.59;99883.48;104132;1330;544769;-88
2022/11/16 00:56:34;;;;;;;15.70;13.40;;;;;;;7.22;75.87;99886.29;105929;1312;22314;-87
2022/11/16 00:59:01;;;;;;;17.00;14.60;;;;;;;7.24;75.97;99877.70;105394;1319;22585;-83
2022/11/16 01:01:27;;;;;;;18.30;14.40;;;;;;;7.28;76.13;99876.83;104341;1308;22517;-83
2022/11/16 01:03:54;;;;;;;16.50;13.20;;;;;;;7.32;76.14;99871.38;104379;1319;22567;-84
2022/11/16 01:06:22;;;;;;;16.00;12.90;;;;;;;7.34;76.06;99870.84;102347;1302;22429;-84
2022/11/16 01:08:50;;;;;;;17.40;13.80;;;;;;;7.35;75.86;99867.51;102495;1317;168015;-86
2022/11/16 01:14:06;;;;;;;15.20;13.10;;;;;;;7.31;75.82;99857.01;102158;1324;24242;-85
2022/11/16 01:16:33;;;;;;;15.10;12.40;;;;;;;7.33;75.92;99859.64;103038;1324;23059;-89
2022/11/16 01:19:00;;;;;;;15.90;12.60;;;;;;;7.35;75.90;99856.48;104590;1289;22483;-91
2022/11/16 01:21:27;;;;;;;14.50;12.80;;;;;;;7.34;75.75;99852.98;103984;1312;22512;-92
2022/11/16 01:23:56;;;;;;;17.20;12.90;;;;;;;7.38;75.92;99850.86;104504;1306;22490;-92
2022/11/16 01:26:23;;;;;;;16.60;13.30;;;;;;;7.40;75.75;99848.56;104316;1307;23016;-91
2022/11/16 01:28:51;;;;;;;15.60;12.40;;;;;;;7.39;75.75;99843.48;106407;1312;22069;-90
2022/11/16 01:31:18;;;;;;;18.00;13.80;;;;;;;7.40;75.56;99842.96;106543;1313;22057;-83
2022/11/16 01:36:34;;;;;;;15.80;13.10;;;;;;;7.45;75.53;99843.10;102818;1333;544851;-93
2022/11/16 01:39:03;;;;;;;15.40;12.10;;;;;;;7.48;75.42;99839.23;104031;1320;22857;-92
2022/11/16 01:41:40;;;;;;;14.80;12.80;;;;;;;7.51;75.50;99841.15;102939;1326;22514;-92
2022/11/16 01:44:13;;;;;;;16.50;13.20;;;;;;;7.56;75.37;99839.02;103065;1326;22840;-92
2022/11/16 01:46:51;;;;;;;16.60;13.20;;;;;;;7.56;75.02;99832.89;104443;1298;22751;-90
2022/11/16 01:49:22;;;;;;;17.50;13.40;;;;;;;7.47;74.96;99822.42;104761;1316;318037;-85
2022/11/16 01:52:09;;;;;;;15.60;12.80;;;;;;;7.40;74.83;99827.71;103119;1298;22481;-86
2022/11/16 01:54:40;;;;;;;18.40;14.30;;;;;;;7.34;75.25;99823.20;103211;1312;22921;-85
2022/11/16 01:57:12;;;;;;;18.70;14.50;;;;;;;7.34;75.54;99821.27;102944;1311;25858;-88
2022/11/16 02:00:14;;;;;;;16.80;12.20;;;;;;;7.31;75.17;99814.63;107276;1279;22610;31
2022/11/16 02:03:04;;;;;;;14.30;12.00;;;;;;;7.29;75.48;99809.04;107191;1280;22614;31
2022/11/16 02:06:10;;;;;;;15.80;11.90;;;;;;;7.31;75.34;99807.45;104903;1283;22493;-82
2022/11/16 02:12:23;;;;;;;14.10;12.00;;;;;;;7.34;75.09;99813.73;103014;1310;22574;-90
2022/11/16 02:15:08;;;;;;;15.50;12.40;;;;;;;7.37;75.14;99813.89;103024;1310;26512;-80
2022/11/16 02:17:53;;;;;;;14.50;12.20;;;;;;;7.37;74.84;99818.61;103073;1310;24371;-79
2022/11/16 02:20:48;;;;;;;13.10;11.70;;;;;;;7.32;74.72;99815.15;106396;1306;22067;-81
2022/11/16 02:23:24;;;;;;;15.40;11.10;;;;;;;7.31;74.86;99812.17;106555;1312;22086;-78
2022/11/16 02:26:11;;;;;;;15.10;12.50;;;;;;;7.33;74.71;99811.99;105936;1318;22192;-79
2022/11/16 02:28:44;;;;;;;14.90;12.40;;;;;;;7.31;74.52;99806.21;105938;1318;22358;-79
2022/11/16 02:31:15;;;;;;;13.80;12.00;;;;;;;7.29;74.89;99805.89;106090;1317;22266;-81
2022/11/16 02:33:46;;;;;;;12.70;11.20;;;;;;;7.34;75.02;99802.35;105910;1317;22121;-80
2022/11/16 02:36:17;;;;;;;14.50;11.80;;;;;;;7.36;74.79;99796.91;106272;1318;22199;-86
2022/11/16 02:38:53;;;;;;;14.40;12.20;;;;;;;7.34;74.77;99796.92;106411;1317;22161;-81
2022/11/16 02:41:23;;;;;;;14.30;11.70;;;;;;;7.36;74.88;99793.75;106283;1316;22161;-81
2022/11/16 02:43:58;;;;;;;14.20;12.10;;;;;;;7.35;74.71;99789.04;106334;1312;22070;-81
2022/11/16 02:46:30;;;;;;;15.60;12.20;;;;;;;7.30;74.57;99789.23;106487;1312;22069;-83
2022/11/16 02:49:01;;;;;;;16.00;12.50;;;;;;;7.28;74.79;99783.45;106576;1312;22667;-82
2022/11/16 02:51:31;;;;;;;14.50;11.40;;;;;;;7.36;74.88;99785.34;106384;1312;22653;-82
2022/11/16 02:54:13;;;;;;;16.60;12.40;;;;;;;7.39;74.73;99788.30;106288;1312;22067;-81
2022/11/16 02:57:01;;;;;;;17.20;14.70;;;;;;;7.42;74.79;99787.41;106533;1312;22083;-79
2022/11/16 02:59:35;;;;;;;14.00;12.50;;;;;;;7.44;74.52;99785.64;106464;1312;22126;-80
2022/11/16 03:02:20;;;;;;;15.40;13.30;;;;;;;7.42;74.58;99786.02;106366;1312;22042;-80
2022/11/16 03:04:52;;;;;;;15.80;13.00;;;;;;;7.41;74.63;99778.66;105762;1317;22750;-81
2022/11/16 03:07:26;;;;;;;17.40;13.40;;;;;;;7.39;74.58;99774.65;105650;1317;22125;-82
2022/11/16 03:09:55;;;;;;;15.60;12.90;;;;;;;7.41;74.64;99767.27;105888;1318;22100;-81
2022/11/16 03:12:27;;;;;;;14.90;12.50;;;;;;;7.45;74.49;99769.53;105967;1316;22141;-81
2022/11/16 03:14:58;;;;;;;16.30;12.90;;;;;;;7.43;74.47;99769.89;105927;1317;22745;-81
2022/11/16 03:17:41;;;;;;;16.90;13.80;;;;;;;7.44;74.50;99770.06;105945;1317;22110;-81
2022/11/16 03:20:16;;;;;;;16.60;14.00;;;;;;;7.50;74.49;99769.86;105995;1317;22162;-81
2022/11/16 03:22:46;;;;;;;18.10;14.60;;;;;;;7.50;74.47;99768.63;106103;1312;22758;-89
2022/11/16 03:25:17;;;;;;;20.60;14.80;;;;;;;7.51;74.37;99766.52;106368;1312;22109;-83
2022/11/16 03:27:56;;;;;;;19.10;13.80;;;;;;;7.47;74.17;99762.15;106366;1312;22094;-90
2022/11/16 03:30:26;;;;;;;18.10;14.00;;;;;;;7.41;74.13;99762.88;106505;1312;22068;-83
2022/11/16 03:33:09;;;;;;;17.60;14.40;;;;;;;7.40;74.30;99759.92;106559;1312;22086;-85
2022/11/16 03:35:51;;;;;;;18.10;14.50;;;;;;;7.39;74.40;99754.14;106508;1312;22189;-91
2022/11/16 03:38:21;;;;;;;17.00;13.90;;;;;;;7.45;74.54;99749.71;106427;1312;22047;-90
2022/11/16 03:40:49;;;;;;;18.00;15.20;;;;;;;7.47;74.24;99749.55;106477;1312;22113;-83
2022/11/16 03:43:19;;;;;;;18.60;14.50;;;;;;;7.44;74.25;99746.77;106468;1312;22767;-83
2022/11/16 03:45:46;;;;;;;16.80;13.60;;;;;;;7.42;74.20;99746.06;106578;1310;22081;-82
2022/11/16 03:48:13;;;;;;;21.70;15.30;;;;;;;7.40;74.25;99748.52;106486;1311;22042;-82
2022/11/16 03:50:41;;;;;;;15.90;13.80;;;;;;;7.35;74.16;99746.81;106464;1311;22197;-82
2022/11/16 03:53:08;;;;;;;16.60;14.80;;;;;;;7.31;74.32;99748.23;106470;1312;22097;-83
2022/11/16 03:55:35;;;;;;;18.20;14.30;;;;;;;7.33;74.35;99745.07;106446;1312;22203;-82
2022/11/16 03:58:03;;;;;;;17.60;13.90;;;;;;;7.34;74.41;99745.93;106462;1312;22097;-82
2022/11/16 04:00:30;;;;;;;17.30;14.20;;;;;;;7.40;74.54;99742.93;106517;1312;22045;-82
2022/11/16 04:03:00;;;;;;;17.50;14.00;;;;;;;7.46;74.44;99743.41;106370;1309;22094;-80
2022/11/16 04:25:21;;;;;;;17.30;14.10;;;;;;;7.54;74.13;99730.58;106333;1313;22053;-88
2022/11/16 04:38:51;;;;;;;18.70;16.00;;;;;;;7.46;74.18;99727.82;105994;1317;22174;-81
2022/11/16 04:44:03;;;;;;;22.70;15.40;;;;;;;7.42;74.27;99726.80;105507;1322;22184;-81
2022/11/16 04:49:17;;;;;;;20.30;15.60;;;;;;;7.42;74.44;99720.14;104885;1326;22172;-81
2022/11/16 04:51:45;;;;;;;20.50;16.40;;;;;;;7.41;74.46;99717.88;104735;1326;22152;-83
2022/11/16 04:54:12;;;;;;;19.10;15.60;;;;;;;7.43;74.69;99716.80;105141;1324;22143;-84
2022/11/16 04:56:39;;;;;;;22.60;16.00;;;;;;;7.44;74.55;99720.30;105249;1316;22922;-84
2022/11/16 04:59:06;;;;;;;22.70;17.80;;;;;;;7.42;74.57;99726.27;105393;1317;22129;-83
2022/11/16 05:04:18;;;;;;;20.70;15.40;;;;;;;7.43;74.75;99726.44;105902;1316;22353;-84
2022/11/16 05:06:46;;;;;;;19.40;15.70;;;;;;;7.43;74.79;99728.36;105697;1313;22299;-89
2022/11/16 05:09:13;;;;;;;22.00;16.80;;;;;;;7.47;75.02;99727.29;106423;1312;22938;-88
2022/11/16 05:11:40;;;;;;;23.60;17.80;;;;;;;7.49;74.94;99724.65;106209;1315;22336;-82
2022/11/16 05:14:09;;;;;;;22.10;17.40;;;;;;;7.50;74.80;99726.91;106421;1312;22104;-81
2022/11/16 05:16:36;;;;;;;22.80;17.30;;;;;;;7.48;74.96;99719.92;106259;1313;22130;-83
2022/11/16 05:22:08;;;;;;;22.50;16.40;;;;;;;7.43;74.86;99718.21;105860;1317;22928;-80
2022/11/16 05:24:36;;;;;;;20.30;15.90;;;;;;;7.42;75.17;99718.73;105887;1318;22341;-81
2022/11/16 05:27:10;;;;;;;20.50;15.70;;;;;;;7.43;75.08;99716.27;106191;1304;22062;-82
2022/11/16 05:29:38;;;;;;;20.40;16.80;;;;;;;7.43;75.12;99718.20;106485;1312;22073;-82
2022/11/16 05:32:06;;;;;;;21.10;16.80;;;;;;;7.41;75.18;99719.09;106490;1312;22106;-84
2022/11/16 05:34:33;;;;;;;20.10;16.00;;;;;;;7.45;75.48;99721.00;106287;1312;22065;-83
2022/11/16 05:37:00;;;;;;;20.10;16.60;;;;;;;7.48;75.54;99719.05;106246;1312;22805;-83
2022/11/16 05:39:27;;;;;;;20.40;16.70;;;;;;;7.53;75.59;99719.02;106278;1312;22067;-84
2022/11/16 05:41:55;;;;;;;23.10;16.70;;;;;;;7.53;75.39;99717.96;106387;1312;22096;-84
2022/11/16 05:44:23;;;;;;;20.50;16.20;;;;;;;7.50;75.27;99722.38;106103;1312;22063;-83
2022/11/16 05:46:50;;;;;;;20.40;16.40;;;;;;;7.47;75.16;99722.04;106335;1312;22090;-83
2022/11/16 05:49:18;;;;;;;22.00;17.10;;;;;;;7.46;75.35;99721.16;106456;1312;22071;-84
2022/11/16 05:51:46;;;;;;;19.60;16.80;;;;;;;7.46;75.53;99717.14;106371;1312;22215;-82
2022/11/16 05:54:17;;;;;;;20.90;17.80;;;;;;;7.46;75.40;99715.21;106320;1313;22194;-84
2022/11/16 05:56:45;;;;;;;20.40;16.40;;;;;;;7.43;75.49;99713.81;106483;1311;22886;-87
2022/11/16 05:59:14;;;;;;;21.20;16.90;;;;;;;7.44;75.64;99714.17;106623;1312;22089;-91
2022/11/16 06:01:43;;;;;;;22.20;16.80;;;;;;;7.47;75.63;99715.02;105958;1316;22074;-91
2022/11/16 06:04:10;;;;;;;20.00;16.10;;;;;;;7.50;75.52;99714.84;106055;1319;22775;-94
2022/11/16 06:06:38;;;;;;;20.70;15.80;;;;;;;7.52;75.51;99713.06;106278;1316;22126;-90
2022/11/16 06:09:23;;;;;;;22.00;16.70;;;;;;;7.53;75.50;99724.27;106236;1314;22129;-90
2022/11/16 06:11:53;;;;;;;21.40;16.10;;;;;;;7.58;75.52;99731.95;106211;1313;22089;-91
2022/11/16 06:14:20;;;;;;;20.40;16.70;;;;;;;7.62;75.38;99735.42;105590;1322;22370;-84
2022/11/16 06:16:47;;;;;;;20.40;16.70;;;;;;;7.64;75.21;99731.55;105746;1320;22177;-83
2022/11/16 06:19:14;;;;;;;18.80;15.80;;;;;;;7.61;75.04;99730.17;105886;1319;22463;-80
2022/11/16 06:21:40;;;;;;;20.90;16.30;;;;;;;7.60;75.11;99733.33;105868;1319;22100;-80
2022/11/16 06:24:12;;;;;;;18.70;15.40;;;;;;;7.63;75.26;99735.40;105662;1319;22159;-81
2022/11/16 06:26:40;;;;;;;19.50;16.10;;;;;;;7.67;75.29;99737.30;105808;1319;22755;-80
2022/11/16 06:29:07;;;;;;;21.70;15.90;;;;;;;7.72;75.09;99738.85;105142;1325;22174;-80
2022/11/16 06:31:34;;;;;;;20.00;15.10;;;;;;;7.73;75.05;99734.98;104960;1326;22256;-79
2022/11/16 06:34:01;;;;;;;20.40;16.40;;;;;;;7.72;74.98;99732.36;105133;1323;22142;-80
2022/11/16 06:36:28;;;;;;;21.50;16.00;;;;;;;7.70;74.86;99728.35;105132;1325;22133;-81
2022/11/16 06:38:59;;;;;;;20.70;15.20;;;;;;;7.65;74.96;99726.98;105113;1325;22180;-76
2022/11/16 06:41:26;;;;;;;18.60;15.50;;;;;;;7.67;74.96;99724.70;105194;1326;22129;-76
2022/11/16 06:43:54;;;;;;;18.80;14.70;;;;;;;7.70;75.09;99728.53;105419;1323;22142;-76
2022/11/16 06:46:24;;;;;;;19.90;14.70;;;;;;;7.73;75.06;99723.59;105419;1320;22169;-74
2022/11/16 06:48:51;;;;;;;23.70;14.90;;;;;;;7.74;74.96;99724.83;105827;1319;22069;-75
2022/11/16 06:51:18;;;;;;;21.10;15.70;;;;;;;7.72;75.00;99726.94;105903;1319;22111;-76
2022/11/16 06:53:45;;;;;;;18.80;15.90;;;;;;;7.71;75.12;99724.14;105733;1319;22802;-76
2022/11/16 06:56:14;;;;;;;21.40;16.30;;;;;;;7.71;75.19;99728.00;106073;1319;22069;-76
2022/11/16 06:58:45;;;;;;;21.40;16.30;;;;;;;7.68;75.40;99726.60;106133;1319;22074;-76
2022/11/16 07:01:12;;;;;;;24.30;17.30;;;;;;;7.70;75.54;99726.79;106021;1319;22073;-76
2022/11/16 07:03:40;;;;;;;21.30;16.50;;;;;;;7.71;75.48;99726.42;105844;1321;22175;-75
2022/11/16 07:06:13;;;;;;;21.10;16.40;;;;;;;7.75;75.50;99723.41;105810;1320;22916;-76
2022/11/16 07:08:41;;;;;;;18.70;16.40;;;;;;;7.74;75.38;99721.82;105777;1319;22811;-76
2022/11/16 07:11:09;;;;;;;22.80;16.10;;;;;;;7.73;75.54;99723.08;105972;1318;22140;-76
2022/11/16 07:13:37;;;;;;;19.30;16.60;;;;;;;7.75;75.50;99724.10;105856;1319;22120;-76
2022/11/16 07:16:10;;;;;;;20.20;15.60;;;;;;;7.71;75.55;99723.60;105841;1320;22049;-76
2022/11/16 07:18:40;;;;;;;22.20;16.40;;;;;;;7.71;75.82;99717.83;105757;1320;22095;-76
2022/11/16 07:21:10;;;;;;;22.50;16.60;;;;;;;7.72;75.84;99714.14;105772;1320;22813;-76
2022/11/16 07:23:37;;;;;;;17.70;15.10;;;;;;;7.73;75.84;99709.92;105630;1320;22725;-77
2022/11/16 07:26:06;;;;;;;19.10;15.70;;;;;;;7.78;75.91;99714.45;105833;1319;22057;-76
2022/11/16 07:29:00;;;;;;;20.10;16.00;;;;;;;7.80;75.67;99713.89;105770;1319;22051;-75
2022/11/16 07:31:27;;;;;;;20.30;16.80;;;;;;;7.80;75.69;99709.52;105515;1319;22804;-75
2022/11/16 07:34:20;;;;;;;20.80;17.80;;;;;;;7.79;75.61;99709.00;105615;1320;22054;-75
2022/11/16 07:37:02;;;;;;;20.70;17.40;;;;;;;7.75;75.63;99709.73;105628;1320;22071;-77
2022/11/16 07:39:29;;;;;;;19.80;16.80;;;;;;;7.74;75.63;99705.89;105843;1319;22081;-76
2022/11/16 07:41:56;;;;;;;17.80;15.40;;;;;;;7.75;75.78;99704.48;105781;1320;22748;-75
2022/11/16 07:44:26;;;;;;;20.70;16.60;;;;;;;7.77;75.87;99701.30;105572;1319;22563;-75
2022/11/16 07:47:04;;;;;;;23.30;16.60;;;;;;;7.82;75.65;99696.70;105830;1319;22812;-76
2022/11/16 07:49:32;;;;;;;20.20;16.90;;;;;;;7.80;75.60;99698.11;105553;1320;22847;-75
2022/11/16 07:52:07;;;;;;;19.70;15.90;;;;;;;7.82;75.66;99697.92;105751;1320;22077;-75
2022/11/16 07:54:41;;;;;;;20.60;16.20;;;;;;;7.85;75.56;99701.05;105840;1322;22072;-76
2022/11/16 07:57:08;;;;;;;18.30;15.20;;;;;;;7.83;75.37;99698.79;105830;1319;22055;-76
2022/11/16 07:59:35;;;;;;;18.30;15.40;;;;;;;7.78;75.30;99698.14;105919;1318;22123;-76
2022/11/16 08:02:03;;;;;;;18.80;16.40;;;;;;;7.73;75.41;99691.88;105810;1319;22092;-77
2022/11/16 08:04:31;;;;;;;17.60;15.00;;;;;;;7.79;75.60;99686.39;105822;1304;22113;-75
2022/11/16 08:06:58;;;;;;;18.30;14.00;;;;;;;7.81;75.40;99689.52;104973;1325;22095;-77
2022/11/16 08:09:25;;;;;;;16.90;14.90;;;;;;;7.78;75.36;99687.80;104971;1325;22135;-77
2022/11/16 08:11:52;;;;;;;16.00;13.70;;;;;;;7.78;75.55;99685.69;105049;1325;22158;-82
2022/11/16 08:14:19;;;;;;;16.60;13.40;;;;;;;7.82;75.53;99681.98;104984;1325;22142;-77
2022/11/16 08:16:47;;;;;;;17.10;15.20;;;;;;;7.84;75.34;99680.55;105074;1328;22852;-76
2022/11/16 08:19:14;;;;;;;16.20;13.80;;;;;;;7.81;75.32;99679.34;104967;1327;22166;-76
2022/11/16 08:21:41;;;;;;;12.70;11.20;;;;;;;7.84;75.41;99679.15;104977;1325;22189;-77
2022/11/16 08:24:08;;;;;;;13.00;11.60;;;;;;;7.89;75.31;99683.31;105100;1323;22355;-75
2022/11/16 08:26:38;;;;;;;13.20;11.70;;;;;;;7.89;75.13;99683.66;105825;1319;22048;-77
2022/11/16 08:29:08;;;;;;;13.80;12.10;;;;;;;7.90;75.07;99691.55;105812;1320;22097;-77
2022/11/16 08:31:36;;;;;;;14.00;12.30;;;;;;;7.86;74.89;99688.77;105583;1319;22120;-78
2022/11/16 08:34:13;;;;;;;16.40;11.60;;;;;;;7.84;75.04;99687.21;105798;1320;22065;-78
2022/11/16 08:36:42;;;;;;;13.60;11.40;;;;;;;7.79;75.19;99685.86;105750;1320;22093;-78
2022/11/16 08:39:09;;;;;;;12.50;10.60;;;;;;;7.80;75.23;99684.80;105767;1317;22192;-78
2022/11/16 08:41:36;;;;;;;11.00;9.50;;;;;;;7.75;75.16;99680.46;105835;1319;22094;-77
2022/11/16 08:44:04;;;;;;;11.90;9.60;;;;;;;7.80;75.32;99687.06;105627;1320;22107;-78
2022/11/16 08:46:33;;;;;;;9.70;8.10;;;;;;;7.84;75.32;99687.56;105765;1311;22059;-77
2022/11/16 08:49:07;;;;;;;9.90;8.30;;;;;;;7.87;75.26;99688.41;105808;1319;22060;-77
2022/11/16 08:51:34;;;;;;;12.10;7.20;;;;;;;7.90;75.12;99691.19;105777;1320;22104;-77
2022/11/16 08:54:04;;;;;;;8.60;7.70;;;;;;;7.91;74.90;99691.36;105623;1320;22174;-77
2022/11/16 08:56:32;;;;;;;9.80;7.00;;;;;;;7.84;74.65;99687.73;105832;1320;22092;-78
2022/11/16 08:59:02;;;;;;;11.90;7.50;;;;;;;7.81;74.89;99694.95;105585;1319;22081;-78
2022/11/16 09:01:30;;;;;;;7.00;6.10;;;;;;;7.82;74.94;99696.17;104894;1326;22109;-77
2022/11/16 09:03:57;;;;;;;7.90;6.00;;;;;;;7.81;74.78;99692.15;104968;1324;22933;-79
2022/11/16 09:06:27;;;;;;;7.00;6.10;;;;;;;7.80;74.98;99692.52;104935;1320;22823;-78
2022/11/16 09:08:54;;;;;;;7.90;6.80;;;;;;;7.86;75.18;99694.73;105055;1325;22231;-77
2022/11/16 09:11:22;;;;;;;7.80;6.20;;;;;;;7.87;75.06;99693.31;104968;1325;22108;-77
2022/11/16 09:13:52;;;;;;;7.10;5.90;;;;;;;7.89;74.85;99693.31;104814;1329;22108;-78
2022/11/16 09:16:20;;;;;;;6.30;5.70;;;;;;;7.85;74.85;99692.29;104293;1327;22149;-79
2022/11/16 09:18:50;;;;;;;6.20;5.60;;;;;;;7.82;74.81;99690.05;104295;1334;23049;-78
2022/11/16 09:21:22;;;;;;;11.00;5.90;;;;;;;7.82;74.90;99686.53;104509;1332;22210;-76
2022/11/16 09:23:49;;;;;;;5.90;5.00;;;;;;;7.77;74.73;99687.63;104495;1333;22967;-76
2022/11/16 09:26:19;;;;;;;5.30;4.70;;;;;;;7.73;74.87;99687.66;104573;1333;22195;-77
2022/11/16 09:28:54;;;;;;;5.90;5.10;;;;;;;7.76;74.83;99680.80;104184;1339;22170;-77
2022/11/16 09:31:21;;;;;;;6.90;5.50;;;;;;;7.73;74.60;99679.08;104210;1334;22111;-77
2022/11/16 09:33:49;;;;;;;7.00;4.90;;;;;;;7.69;74.60;99679.64;104606;1326;22827;-77
2022/11/16 09:36:16;;;;;;;5.40;4.90;;;;;;;7.65;74.71;99681.95;104656;1331;22161;-77
2022/11/16 09:38:44;;;;;;;5.00;4.50;;;;;;;7.64;74.86;99681.25;104633;1334;22226;-77
2022/11/16 09:42:02;;;;;;;4.70;4.30;;;;;;;7.65;74.82;99678.78;104608;1330;22952;-76
2022/11/16 09:44:56;;;;;;;6.50;5.50;;;;;;;7.68;74.85;99674.21;104577;1331;22168;-76
2022/11/16 09:47:34;;;;;;;5.50;4.90;;;;;;;7.73;74.91;99672.23;104982;1325;22944;-77
2022/11/16 09:50:04;;;;;;;5.60;5.00;;;;;;;7.78;74.92;99670.27;105167;1321;22153;-78
2022/11/16 09:52:43;;;;;;;5.20;4.70;;;;;;;7.82;74.76;99666.20;105150;1324;22904;-76
2022/11/16 09:55:34;;;;;;;5.90;5.10;;;;;;;7.82;74.32;99668.65;105611;1319;22106;-78
2022/11/16 09:58:10;;;;;;;5.70;4.90;;;;;;;7.81;74.43;99669.89;105771;1319;22087;-78
2022/11/16 10:00:43;;;;;;;5.30;4.80;;;;;;;7.84;74.29;99668.98;105804;1314;22099;-76
2022/11/16 10:03:14;;;;;;;4.70;4.20;;;;;;;7.87;74.21;99666.15;105826;1320;22085;-78
2022/11/16 10:06:04;;;;;;;4.40;4.00;;;;;;;7.90;74.11;99662.80;105837;1319;22210;-76
2022/11/16 10:08:46;;;;;;;5.50;4.70;;;;;;;7.94;73.92;99659.59;105771;1319;22904;-77
2022/11/16 10:11:42;;;;;;;5.70;4.80;;;;;;;7.93;73.74;99658.89;105590;1319;22682;-77
2022/11/16 10:14:30;;;;;;;5.30;4.60;;;;;;;7.96;73.82;99657.13;105818;1317;22946;-76
2022/11/16 10:17:15;;;;;;;5.40;4.70;;;;;;;7.99;73.74;99656.05;105939;1319;22066;-75
2022/11/16 10:20:10;;;;;;;5.10;4.60;;;;;;;8.02;73.50;99656.02;105945;1319;22085;-78
2022/11/16 10:22:53;;;;;;;4.60;4.20;;;;;;;7.96;73.46;99650.98;105935;1319;22099;-77
2022/11/16 10:25:22;;;;;;;5.10;4.50;;;;;;;7.94;73.53;99647.67;105931;1319;22350;-77
2022/11/16 10:28:01;;;;;;;4.90;4.30;;;;;;;7.95;73.42;99641.36;105920;1318;22062;-77
2022/11/16 10:30:33;;;;;;;4.50;4.10;;;;;;;7.97;73.53;99639.04;105913;1318;22066;-78
2022/11/16 10:33:04;;;;;;;5.10;4.50;;;;;;;8.02;73.54;99634.80;105928;1319;22090;-77
2022/11/16 10:35:44;;;;;;;4.90;4.40;;;;;;;8.10;73.44;99636.98;105928;1318;22123;-78
2022/11/16 10:38:22;;;;;;;6.50;4.40;;;;;;;8.13;73.13;99634.14;105817;1319;22302;-77
2022/11/16 10:40:54;;;;;;;4.90;4.40;;;;;;;8.13;72.71;99631.52;105946;1319;22839;-77
2022/11/16 10:43:27;;;;;;;4.90;4.40;;;;;;;8.09;72.68;99628.92;105806;1320;22106;-77
2022/11/16 10:46:13;;;;;;;5.30;4.00;;;;;;;8.09;72.60;99625.95;105793;1314;22146;-78
2022/11/16 10:49:03;;;;;;;4.70;4.30;;;;;;;8.07;72.53;99626.50;105814;1319;22099;-77
2022/11/16 10:51:31;;;;;;;7.20;4.00;;;;;;;8.06;72.36;99628.27;105909;1319;22055;-76
2022/11/16 10:53:58;;;;;;;4.90;4.20;;;;;;;8.06;72.41;99632.30;105910;1319;22069;-77
2022/11/16 10:56:28;;;;;;;4.80;4.00;;;;;;;8.06;72.36;99632.81;105845;1319;22140;-78
2022/11/16 10:58:55;;;;;;;5.60;3.80;;;;;;;8.08;72.13;99629.64;105820;1320;22551;-77
2022/11/16 11:01:37;;;;;;;8.30;4.50;;;;;;;8.04;71.94;99631.97;105897;1319;22117;-78
2022/11/16 11:04:27;;;;;;;4.70;4.10;;;;;;;8.00;72.17;99627.45;105822;1319;22116;-78
2022/11/16 11:06:54;;;;;;;5.00;3.70;;;;;;;8.03;72.00;99627.59;105909;1319;22745;-77
2022/11/16 11:09:21;;;;;;;5.40;4.10;;;;;;;8.02;71.84;99626.55;105916;1319;22773;-77
2022/11/16 11:15:06;;;;;;;4.10;3.50;;;;;;;7.92;71.77;99625.25;105916;1319;22104;-77
2022/11/16 11:17:35;;;;;;;5.30;3.80;;;;;;;7.93;71.85;99626.65;105837;1320;22114;-78
2022/11/16 11:20:14;;;;;;;4.30;3.60;;;;;;;7.93;71.78;99629.27;105830;1319;22072;-76
2022/11/16 11:22:48;;;;;;;4.60;4.10;;;;;;;7.91;71.49;99625.09;105942;1319;22157;-76
2022/11/16 11:25:23;;;;;;;6.00;3.10;;;;;;;7.91;71.87;99627.55;105936;1318;22149;-77
2022/11/16 11:28:22;;;;;;;3.80;3.30;;;;;;;7.95;71.85;99633.11;105816;1320;22130;-77
2022/11/16 11:30:58;;;;;;;4.60;3.60;;;;;;;7.95;71.70;99635.04;105925;1319;22169;-77
2022/11/16 11:33:28;;;;;;;4.20;3.30;;;;;;;7.96;71.94;99634.33;105821;1319;22135;-77
2022/11/16 11:36:09;;;;;;;4.20;3.40;;;;;;;7.96;71.94;99637.66;105938;1311;22753;-77
2022/11/16 11:38:55;;;;;;;4.00;3.40;;;;;;;7.99;71.83;99632.90;105938;1311;22111;-78
2022/11/16 11:41:22;;;;;;;5.70;3.30;;;;;;;8.00;71.62;99629.90;105825;1319;22801;-76
2022/11/16 11:44:02;;;;;;;7.20;3.70;;;;;;;7.98;71.47;99627.65;105927;1318;22108;-77
2022/11/16 11:46:35;;;;;;;4.90;3.80;;;;;;;7.89;71.57;99631.77;105918;1305;22912;-77
2022/11/16 11:49:30;;;;;;;3.40;3.10;;;;;;;7.87;71.68;99628.63;105670;1319;22098;-79
2022/11/16 11:52:16;;;;;;;3.50;3.20;;;;;;;7.90;71.65;99626.67;105579;1319;22246;-78
2022/11/16 11:54:48;;;;;;;3.60;3.30;;;;;;;7.95;71.44;99624.52;105612;1319;22186;-76
2022/11/16 11:57:21;;;;;;;4.60;3.30;;;;;;;7.99;71.22;99621.85;105770;1319;22312;-76
2022/11/16 11:59:51;;;;;;;4.50;3.10;;;;;;;8.03;71.06;99622.33;105837;1319;22100;-78
2022/11/16 12:02:41;;;;;;;5.90;2.90;;;;;;;8.04;70.86;99620.91;105843;1313;22159;-78
2022/11/16 12:05:50;;;;;;;3.00;2.70;;;;;;;8.05;70.76;99620.54;105353;1313;22785;-76
2022/11/16 12:08:29;;;;;;;5.40;3.10;;;;;;;8.00;70.49;99616.21;105546;1319;22176;-77
2022/11/16 12:11:11;;;;;;;2.90;2.40;;;;;;;7.87;70.81;99620.21;105926;1319;22096;-77
2022/11/16 12:13:47;;;;;;;4.50;3.20;;;;;;;7.83;70.91;99621.84;105820;1319;22917;-77
2022/11/16 12:16:43;;;;;;;2.70;2.40;;;;;;;7.77;71.01;99628.73;105832;1318;22811;-78
2022/11/16 12:19:40;;;;;;;2.10;1.80;;;;;;;7.68;71.05;99632.31;105891;1319;22073;-77
2022/11/16 12:22:26;;;;;;;;;;;;;;;7.59;71.25;99628.73;105834;1319;22311;-77
2022/11/16 12:25:05;;;;;;;1.90;1.70;;;;;;;7.52;71.36;99630.38;105945;1319;22804;-76
2022/11/16 12:27:49;;;;;;;1.70;1.60;;;;;;;7.43;71.29;99639.55;105927;1319;22173;-76
2022/11/16 12:30:22;;;;;;;1.70;1.40;;;;;;;7.26;71.36;99643.20;105933;1318;22040;-77
2022/11/16 12:33:26;;;;;;;3.10;1.30;;;;;;;7.14;71.53;99649.58;105857;1305;22153;-76
2022/11/16 12:36:08;;;;;;;1.70;1.20;;;;;;;7.04;71.60;99646.14;105934;1319;22128;-76
2022/11/16 12:38:48;;;;;;;3.70;1.10;;;;;;;6.96;71.71;99650.39;105830;1319;22712;-77
2022/11/16 12:41:52;;;;;;;1.10;1.00;;;;;;;6.86;71.95;99645.56;105920;1318;22090;-78
2022/11/16 12:44:35;;;;;;;4.80;1.60;;;;;;;6.76;71.66;99656.80;105921;1319;22302;-77
2022/11/16 12:47:30;;;;;;;2.70;1.40;;;;;;;6.57;71.66;99653.39;105939;1319;22111;-77